CST,Max TemperatureF,Mean TemperatureF,Min TemperatureF,Max Dew PointF,MeanDew PointF,Min DewpointF,Max Humidity, Mean Humidity, Min Humidity, Max Sea Level PressureIn, Mean Sea Level PressureIn, Min Sea Level PressureIn, Max VisibilityMiles, Mean VisibilityMiles, Min VisibilityMiles, Max Wind SpeedMPH, Mean Wind SpeedMPH, Max Gust SpeedMPH,PrecipitationIn, CloudCover, Events, WindDirDegrees
2012-12-1,70,62,53,52,48,44,78,64,51,30.22,30.15,30.09,10,10,10,20,10,23,0.00,4,,175
2012-12-2,69,64,60,61,59,52,93,82,72,30.19,30.13,30.09,10,10,10,16,13,26,0.00,6,Rain,185
2012-12-3,73,66,60,60,57,52,94,75,49,30.16,30.09,30.02,10,10,10,21,14,28,0.00,5,,186
2012-12-4,68,60,53,63,58,51,100,90,70,30.24,30.14,30.06,10,9,2,16,10,23,0.42,7,Rain-Thunderstorm,222
2012-12-5,63,56,48,50,44,37,93,72,41,30.28,30.21,30.14,10,10,9,17,9,,0.00,6,,34
2012-12-6,57,51,45,57,55,35,100,96,68,30.07,29.98,29.93,10,4,2,6,2,,0.00,7,Rain,158
2012-12-7,66,60,55,59,56,53,100,93,70,29.94,29.91,29.83,10,5,0,13,4,,0.01,7,Fog,184
2012-12-8,61,59,57,61,59,55,100,96,83,29.93,29.89,29.86,10,4,0,10,6,,0.00,8,Fog-Rain,180
2012-12-9,68,62,54,64,61,52,100,93,83,29.90,29.83,29.76,10,8,1,15,8,26,0.84,7,Rain-Thunderstorm,200
2012-12-10,53,42,32,50,34,24,93,78,65,30.11,29.93,29.78,10,10,5,17,11,28,0.06,6,Rain,346
2012-12-11,41,34,27,30,27,24,96,79,57,30.29,30.19,30.11,10,10,8,7,4,,0.00,1,,352
2012-12-12,50,38,26,31,27,20,96,72,34,30.38,30.33,30.28,10,10,8,5,1,,0.00,0,,18
2012-12-13,55,40,26,32,27,23,96,70,30,30.40,30.34,30.28,10,10,10,8,1,,0.00,0,,168
2012-12-14,57,44,30,47,35,26,93,69,39,30.30,30.20,30.04,10,10,6,12,5,,0.04,1,Rain,169
2012-12-15,62,56,50,59,53,47,100,88,82,30.03,29.89,29.81,10,10,2,25,17,31,0.14,7,Rain,179
2012-12-16,62,58,55,61,58,55,100,96,88,29.83,29.77,29.71,10,7,0,15,8,20,0.00,6,Fog-Rain,191
2012-12-17,62,50,36,57,50,35,100,89,60,29.87,29.72,29.65,10,9,1,14,8,23,0.01,4,Rain,213
2012-12-18,60,45,30,45,37,30,100,87,51,29.93,29.88,29.81,10,5,0,18,4,28,0.00,1,Fog,176
2012-12-19,64,54,43,54,47,40,93,72,53,29.94,29.84,29.64,10,10,10,24,10,30,0.00,3,,170
2012-12-20,64,50,36,63,41,21,94,69,49,30.17,29.77,29.50,10,9,2,32,19,44,0.33,5,Rain,256
2012-12-21,46,37,26,25,20,16,84,56,32,30.36,30.30,30.18,10,10,10,14,7,22,0.00,0,,292
2012-12-22,59,43,27,35,29,23,92,62,27,30.35,30.24,30.09,10,10,10,14,5,16,0.00,0,,180
2012-12-23,55,50,45,54,46,32,100,83,56,30.09,29.94,29.81,10,10,10,15,10,,0.00,7,Rain,189
2012-12-24,55,48,41,55,49,36,100,89,69,29.99,29.87,29.77,10,7,2,10,4,21,0.00,7,,352
2012-12-25,39,36,32,36,31,28,100,86,75,30.04,29.80,29.58,10,6,2,30,14,41,0.57,7,Rain-Snow,36
2012-12-26,33,30,26,32,28,25,100,90,75,30.21,29.90,29.58,10,6,1,24,15,46,0.02,7,Snow,330
2012-12-27,39,32,24,30,27,22,100,84,65,30.23,30.14,30.05,10,6,1,8,1,,0.00,1,,117
2012-12-28,39,37,35,39,35,30,100,94,81,30.08,29.95,29.78,10,5,0,12,6,21,0.46,8,Fog-Rain,80
2012-12-29,36,30,24,34,26,21,93,78,64,30.44,30.19,29.97,10,10,6,16,9,23,0.01,5,,315
2012-12-30,39,30,21,30,24,19,96,79,53,30.55,30.46,30.35,10,8,1,7,1,,0.00,0,,177
2012-12-31,44,38,33,41,36,30,100,87,58,30.34,30.13,30.01,10,8,2,12,5,,0.01,7,Rain,121